TimeCST,TemperatureF,Dew PointF,Humidity,Sea Level PressureIn,VisibilityMPH,Wind Direction,Wind SpeedMPH,Gust SpeedMPH,PrecipitationIn,Events,Conditions,WindDirDegrees,DateUTC
12:53 AM,34.0,26.1,73,29.95,10.0,NNW,11.5,-,N/A,,Clear,330,2012-11-25 06:53:00
1:53 AM,34.0,27.0,75,29.96,10.0,NNW,13.8,-,N/A,,Clear,330,2012-11-25 07:53:00
2:53 AM,30.9,26.1,82,29.99,10.0,NNW,9.2,-,N/A,,Clear,330,2012-11-25 08:53:00
3:33 AM,30.2,26.6,86,29.96,10.0,North,10.4,-,N/A,,Mostly Cloudy,350,2012-11-25 09:33:00
3:50 AM,30.2,26.6,86,29.97,10.0,North,18.4,-,N/A,,Overcast,350,2012-11-25 09:50:00
3:53 AM,30.9,26.1,82,30.01,10.0,North,16.1,-,N/A,,Overcast,350,2012-11-25 09:53:00
4:53 AM,30.0,25.0,82,30.01,10.0,North,19.6,-,N/A,,Overcast,360,2012-11-25 10:53:00
5:10 AM,30.2,24.8,80,29.98,10.0,North,13.8,-,N/A,,Overcast,350,2012-11-25 11:10:00
5:53 AM,28.0,23.0,81,30.04,10.0,North,10.4,-,N/A,,Overcast,360,2012-11-25 11:53:00
6:53 AM,28.0,23.0,81,30.04,10.0,North,10.4,-,N/A,,Overcast,350,2012-11-25 12:53:00
7:53 AM,27.0,21.9,81,30.08,10.0,North,6.9,-,N/A,,Overcast,360,2012-11-25 13:53:00
8:12 AM,26.6,21.2,80,30.04,-9999.0,North,8.1,-,N/A,,Unknown,10,2012-11-25 14:12:00
8:53 AM,27.0,21.9,81,30.10,10.0,North,9.2,-,N/A,,Unknown,360,2012-11-25 14:53:00
9:05 AM,26.6,21.2,80,30.06,10.0,North,6.9,-,N/A,,Overcast,360,2012-11-25 15:05:00
9:53 AM,28.0,21.9,78,30.10,10.0,NNW,4.6,-,N/A,,Overcast,340,2012-11-25 15:53:00
10:53 AM,28.9,21.9,75,30.12,10.0,NW,8.1,-,N/A,,Overcast,310,2012-11-25 16:53:00
11:24 AM,30.2,21.2,69,30.07,-9999.0,NNW,8.1,-,N/A,,Unknown,330,2012-11-25 17:24:00
11:53 AM,30.0,21.9,72,30.11,10.0,West,8.1,-,N/A,,Partly Cloudy,280,2012-11-25 17:53:00
12:53 PM,32.0,23.0,69,30.08,10.0,West,6.9,-,N/A,,Clear,270,2012-11-25 18:53:00
1:53 PM,34.0,23.0,64,30.09,10.0,NW,8.1,-,N/A,,Clear,310,2012-11-25 19:53:00
2:53 PM,34.0,23.0,64,30.09,10.0,NW,5.8,-,N/A,,Scattered Clouds,320,2012-11-25 20:53:00
3:53 PM,34.0,21.9,61,30.09,10.0,NNE,9.2,-,N/A,,Mostly Cloudy,20,2012-11-25 21:53:00
4:53 PM,32.0,21.9,66,30.11,10.0,NNE,9.2,-,N/A,,Scattered Clouds,20,2012-11-25 22:53:00
5:53 PM,30.0,21.0,69,30.14,10.0,NNE,8.1,-,N/A,,Mostly Cloudy,20,2012-11-25 23:53:00
6:53 PM,28.9,21.0,72,30.17,10.0,North,5.8,-,N/A,,Overcast,360,2012-11-26 00:53:00
7:53 PM,28.9,21.0,72,30.18,10.0,NNW,3.5,-,N/A,,Overcast,340,2012-11-26 01:53:00
8:53 PM,28.9,21.0,72,30.21,10.0,WNW,3.5,-,N/A,,Scattered Clouds,290,2012-11-26 02:53:00
9:53 PM,28.0,21.0,75,30.24,10.0,NNW,10.4,-,N/A,,Overcast,340,2012-11-26 03:53:00
10:53 PM,27.0,17.1,66,30.26,10.0,North,13.8,-,N/A,,Overcast,360,2012-11-26 04:53:00
11:53 PM,25.0,15.1,66,30.30,10.0,North,15.0,-,N/A,,Overcast,360,2012-11-26 05:53:00